createdAt,value
2019-04-26T00:00:39.550Z,1.50
2019-04-26T00:05:46.207Z,2.00
2019-04-26T00:10:54.680Z,1.67
2019-04-26T00:16:00.063Z,1.80
2019-04-26T00:21:06.965Z,2.00
2019-04-26T00:26:13.553Z,2.13
2019-04-26T00:31:25.148Z,1.90
2019-04-26T00:36:33.319Z,2.03
2019-04-26T00:41:37.824Z,2.03
2019-04-26T00:46:46.264Z,1.60
2019-04-26T00:51:52.175Z,1.57
2019-04-26T00:57:00.009Z,2.23
2019-04-26T01:02:11.238Z,1.63
2019-04-26T01:07:15.675Z,2.20
2019-04-26T01:12:25.997Z,1.80
2019-04-26T01:17:35.075Z,1.67
2019-04-26T01:22:41.927Z,1.47
2019-04-26T01:27:48.889Z,1.90
2019-04-26T01:32:54.343Z,1.90
2019-04-26T01:38:03.672Z,1.67
2019-04-26T01:43:09.707Z,1.50
2019-04-26T01:48:34.606Z,1.80
2019-04-26T01:53:42.079Z,1.70
2019-04-26T01:58:54.300Z,1.80
2019-04-26T02:03:59.727Z,1.90
2019-04-26T02:09:05.747Z,1.60
2019-04-26T02:14:09.657Z,1.47
2019-04-26T02:19:16.196Z,1.70
2019-04-26T02:24:40.192Z,1.87
2019-04-26T02:29:44.640Z,1.60
2019-04-26T02:35:04.912Z,1.77
2019-04-26T02:40:17.454Z,1.77
2019-04-26T02:45:41.209Z,1.63
2019-04-26T02:50:49.906Z,1.70
2019-04-26T02:56:31.763Z,1.80
2019-04-26T03:01:40.095Z,1.60
2019-04-26T03:07:02.234Z,1.73
2019-04-26T03:11:57.477Z,1.47
2019-04-26T03:17:21.257Z,1.47
2019-04-26T03:22:56.618Z,1.60
2019-04-26T03:28:21.539Z,1.77
2019-04-26T03:33:55.099Z,1.50
2019-04-26T03:39:11.661Z,1.80
2019-04-26T03:44:21.371Z,1.40
2019-04-26T03:49:44.170Z,1.60
2019-04-26T03:54:51.492Z,1.40
2019-04-26T04:00:08.932Z,1.20
2019-04-26T04:05:29.388Z,1.00
2019-04-26T04:10:39.287Z,1.17
2019-04-26T04:15:51.041Z,1.30
2019-04-26T04:21:11.219Z,1.10
2019-04-26T04:26:17.913Z,1.30
2019-04-26T04:31:33.600Z,1.30
2019-04-26T04:36:46.894Z,1.83
2019-04-26T04:42:36.177Z,1.73
2019-04-26T04:47:35.941Z,2.00
2019-04-26T04:53:05.303Z,2.40
2019-04-26T04:58:19.451Z,2.20
2019-04-26T05:03:39.492Z,2.03
2019-04-26T05:09:00.745Z,2.10
2019-04-26T05:14:24.036Z,2.60
2019-04-26T05:19:50.660Z,2.70
2019-04-26T05:25:15.965Z,2.37
2019-04-26T05:30:29.724Z,2.03
2019-04-26T05:35:47.383Z,1.97
2019-04-26T05:41:00.112Z,1.80
2019-04-26T05:46:47.567Z,1.60
2019-04-26T05:52:29.294Z,2.07
2019-04-26T05:57:55.036Z,1.40
2019-04-26T06:03:09.126Z,1.60
2019-04-26T06:08:48.982Z,1.27
2019-04-26T06:14:05.639Z,1.17
2019-04-26T06:19:48.233Z,1.27
2019-04-26T06:25:09.046Z,1.20
2019-04-26T06:30:22.853Z,1.00
2019-04-26T06:35:29.792Z,1.20
2019-04-26T06:41:15.956Z,1.40
2019-04-26T06:46:25.430Z,1.43
2019-04-26T06:51:32.114Z,1.20
2019-04-26T06:56:49.478Z,1.80
2019-04-26T07:01:59.192Z,1.37
2019-04-26T07:07:23.844Z,1.60
2019-04-26T07:12:41.423Z,1.80
2019-04-26T07:18:16.336Z,1.70
2019-04-26T07:23:36.281Z,2.23
2019-04-26T07:28:49.587Z,1.67
2019-04-26T07:34:23.515Z,2.47
2019-04-26T07:40:12.466Z,2.27
2019-04-26T07:45:47.868Z,2.60
2019-04-26T07:51:17.333Z,3.50
2019-04-26T07:56:43.797Z,3.50
2019-04-26T08:01:59.908Z,4.13
2019-04-26T08:07:21.171Z,3.57
2019-04-26T08:12:29.605Z,3.87
2019-04-26T08:17:37.239Z,2.73
2019-04-26T08:22:44.113Z,2.30
2019-04-26T08:27:51.135Z,1.90
2019-04-26T08:33:02.083Z,2.43
2019-04-26T08:38:16.091Z,2.53
2019-04-26T08:43:18.302Z,2.10
2019-04-26T08:48:27.789Z,1.70
2019-04-26T08:53:32.398Z,1.77
2019-04-26T08:58:39.938Z,1.70
2019-04-26T09:03:53.969Z,1.50
2019-04-26T09:09:00.271Z,2.83
2019-04-26T09:14:05.641Z,2.77
2019-04-26T09:19:09.335Z,1.30
2019-04-26T09:24:24.909Z,1.20
2019-04-26T09:29:30.396Z,1.30
2019-04-26T09:34:40.326Z,0.90
2019-04-26T09:39:43.335Z,1.13
2019-04-26T09:44:48.802Z,1.30
2019-04-26T09:50:03.184Z,1.40
2019-04-26T09:55:09.178Z,1.43
2019-04-26T10:00:17.766Z,1.60
2019-04-26T10:05:24.889Z,1.40
2019-04-26T10:10:35.393Z,1.60
2019-04-26T10:15:41.039Z,1.70
2019-04-26T10:20:45.032Z,1.00
2019-04-26T10:25:51.914Z,1.00
2019-04-26T10:30:57.131Z,1.00
2019-04-26T10:36:02.704Z,0.97
2019-04-26T10:41:06.036Z,1.20
2019-04-26T10:46:09.724Z,1.27
2019-04-26T10:51:15.946Z,0.90
2019-04-26T10:56:30.969Z,1.30
2019-04-26T11:01:37.304Z,1.60
2019-04-26T11:06:43.004Z,1.47
2019-04-26T11:11:46.745Z,2.03
2019-04-26T11:16:50.839Z,2.10
2019-04-26T11:21:57.567Z,2.43
2019-04-26T11:27:09.648Z,1.70
2019-04-26T11:32:15.367Z,2.40
2019-04-26T11:37:19.489Z,1.70
2019-04-26T11:42:23.147Z,1.70
2019-04-26T11:47:29.272Z,1.93
2019-04-26T11:52:36.031Z,1.97
2019-04-26T11:57:43.710Z,1.73
2019-04-26T12:02:50.620Z,1.70
2019-04-26T12:08:09.693Z,1.30
2019-04-26T12:13:14.958Z,1.67
2019-04-26T12:18:21.810Z,1.40
2019-04-26T12:23:28.427Z,1.83
2019-04-26T12:28:32.005Z,0.90
2019-04-26T12:33:39.194Z,0.93
2019-04-26T12:38:44.066Z,1.40
2019-04-26T12:43:47.909Z,1.30
2019-04-26T12:48:53.152Z,1.17
2019-04-26T12:53:56.962Z,1.40
2019-04-26T12:59:00.891Z,1.30
2019-04-26T13:04:08.360Z,1.10
2019-04-26T13:09:21.939Z,1.47
2019-04-26T13:14:44.422Z,1.17
2019-04-26T13:19:53.965Z,1.03
2019-04-26T13:24:55.472Z,1.20
2019-04-26T13:30:02.542Z,1.27
2019-04-26T13:35:07.183Z,1.10
2019-04-26T13:40:10.349Z,1.40
2019-04-26T13:45:18.451Z,1.10
2019-04-26T13:50:26.986Z,1.10
2019-04-26T13:55:35.967Z,1.30
2019-04-26T14:00:43.466Z,0.83
2019-04-26T14:05:48.963Z,1.00
2019-04-26T14:10:56.879Z,0.80
2019-04-26T14:16:00.959Z,0.80
2019-04-26T14:21:07.923Z,0.90
2019-04-26T14:26:16.196Z,0.87
2019-04-26T14:31:22.736Z,1.10
2019-04-26T14:36:26.915Z,1.10
2019-04-26T14:41:31.570Z,1.27
2019-04-26T14:46:48.238Z,1.10
2019-04-26T14:51:43.336Z,1.50
2019-04-26T14:56:52.323Z,1.20
2019-04-26T15:02:10.422Z,1.30
2019-04-26T15:07:18.311Z,1.53
2019-04-26T15:12:25.947Z,1.50
2019-04-26T15:17:32.262Z,1.37
2019-04-26T15:22:42.940Z,1.23
2019-04-26T15:27:55.443Z,1.67
2019-04-26T15:33:03.174Z,1.40
2019-04-26T15:38:08.257Z,1.50
2019-04-26T15:43:25.507Z,1.50
2019-04-26T15:48:45.766Z,1.70
2019-04-26T15:53:51.052Z,1.37
2019-04-26T15:58:55.104Z,1.77
2019-04-26T16:04:04.406Z,1.60
2019-04-26T16:09:13.937Z,1.60
2019-04-26T16:14:26.371Z,1.20
2019-04-26T16:19:28.210Z,1.40
2019-04-26T16:24:34.189Z,1.30
2019-04-26T16:29:58.480Z,1.43
2019-04-26T16:35:06.154Z,1.23
2019-04-26T16:40:14.061Z,1.10
2019-04-26T16:45:17.765Z,1.20
2019-04-26T16:50:31.463Z,1.63
2019-04-26T16:55:48.896Z,3.20
2019-04-26T17:00:51.465Z,1.43
2019-04-26T17:06:04.068Z,1.37
2019-04-26T17:11:02.840Z,1.87
2019-04-26T17:16:07.330Z,1.73
2019-04-26T17:21:12.893Z,1.90
2019-04-26T17:26:33.647Z,1.70
2019-04-26T17:31:39.588Z,1.77
2019-04-26T17:36:46.414Z,1.70
2019-04-26T17:41:54.098Z,1.90
2019-04-26T17:47:01.952Z,1.80
2019-04-26T17:52:08.075Z,2.27
2019-04-26T17:57:14.511Z,2.50
2019-04-26T18:02:31.176Z,2.20
2019-04-26T18:07:40.174Z,2.20
2019-04-26T18:12:38.979Z,2.50
2019-04-26T18:17:44.890Z,2.43
2019-04-26T18:22:53.121Z,3.13
2019-04-26T18:27:59.845Z,3.10
2019-04-26T18:33:13.446Z,3.53
2019-04-26T18:38:17.151Z,2.57
2019-04-26T18:43:24.084Z,2.60
2019-04-26T18:48:27.078Z,2.17
2019-04-26T18:53:39.661Z,2.60
2019-04-26T18:58:43.711Z,2.40
2019-04-26T19:03:50.250Z,2.37
2019-04-26T19:08:57.523Z,2.60
2019-04-26T19:14:19.478Z,2.43
2019-04-26T19:19:27.694Z,2.40
2019-04-26T19:24:38.641Z,2.60
2019-04-26T19:29:43.300Z,2.50
2019-04-26T19:34:47.552Z,3.03
2019-04-26T19:39:51.489Z,4.00
2019-04-26T19:45:13.386Z,3.40
2019-04-26T19:50:18.364Z,3.50
2019-04-26T19:55:41.807Z,3.60
2019-04-26T20:00:46.877Z,3.53
2019-04-26T20:05:52.561Z,3.50
2019-04-26T20:11:18.590Z,3.83
2019-04-26T20:16:22.614Z,4.00
2019-04-26T20:21:32.631Z,4.77
2019-04-26T20:26:37.401Z,6.40
2019-04-26T20:31:52.139Z,12.30
2019-04-26T20:36:57.396Z,4.10
2019-04-26T20:42:03.834Z,4.70
2019-04-26T20:47:17.488Z,4.37
2019-04-26T20:52:24.820Z,4.57
2019-04-26T20:57:35.431Z,5.47
2019-04-26T21:02:42.113Z,4.33
2019-04-26T21:07:49.528Z,4.80
2019-04-26T21:12:55.067Z,4.70
2019-04-26T21:18:01.359Z,4.30
2019-04-26T21:23:04.411Z,5.07
2019-04-26T21:28:12.458Z,5.07
2019-04-26T21:33:20.853Z,5.90
2019-04-26T21:38:33.357Z,5.83
2019-04-26T21:43:39.868Z,5.47
2019-04-26T21:48:44.595Z,5.53
2019-04-26T21:53:48.506Z,5.80
2019-04-26T21:58:53.266Z,5.80
2019-04-26T22:03:59.913Z,5.73
2019-04-26T22:09:21.595Z,5.50
2019-04-26T22:14:34.093Z,5.90
2019-04-26T22:19:45.075Z,5.20
2019-04-26T22:24:50.296Z,5.50
2019-04-26T22:29:55.078Z,6.83
2019-04-26T22:34:59.017Z,7.40
2019-04-26T22:40:03.705Z,6.73
2019-04-26T22:45:16.913Z,7.43
2019-04-26T22:50:22.130Z,6.90
2019-04-26T22:55:27.735Z,5.67
2019-04-26T23:00:33.171Z,5.70
2019-04-26T23:05:39.579Z,7.27
2019-04-26T23:10:48.001Z,7.70
2019-04-26T23:15:53.365Z,7.20
2019-04-26T23:21:12.037Z,6.80
2019-04-26T23:26:19.792Z,6.80
2019-04-26T23:31:23.782Z,7.03
2019-04-26T23:36:27.408Z,7.80
2019-04-26T23:41:31.101Z,7.43
2019-04-26T23:46:39.322Z,6.83
2019-04-26T23:51:45.772Z,6.47
2019-04-26T23:56:48.203Z,6.50
